Sanandaj Airport

Airport
ICAO code: 
OICS
IATA Code: 
SDG
Summary
ICAO Region: 
MID
Territory: 
Location: 
Sanandaj, Kurdistan Province
Serving: 
Sanandaj
Elevation: 
4522 ft
Coordinates: 
Aerial View: 
35° 15' 5.974" N, 47° 0' 48.93" E
Metar
Observation
OICS 030800Z 03006KT CAVOK 29/05 Q1008 A2978
Station
Sanandaj
Date/Time
2022-07-03 08:00:00
Wind direction
30°
Wind speed
06 kts
Lowest cloud amount
clouds and visibility OK
Temperature
29°C
Dew point
5°C
Humidity
21%
QNH
1008 hPa
Weather condition
n/a

Airport south of the city of Sanandaj, Iran.

Climatology

Warm Semi-arid climate (Köppen climate classification Bsh).

Runways

Designator Length Width Surface Rops
1/19 2640 45 ASP No/No
Airport map: 
Aerial View: 

SKYbrary Partners:

Safety knowledge contributed by: